createdAt,value
2018-02-18T00:01:22.128Z,52.17
2018-02-18T00:03:52.963Z,50.27
2018-02-18T00:06:23.810Z,46.77
2018-02-18T00:08:54.634Z,47.90
2018-02-18T00:11:26.289Z,43.40
2018-02-18T00:13:59.165Z,44.08
2018-02-18T00:16:30.118Z,48.50
2018-02-18T00:19:00.950Z,49.00
2018-02-18T00:21:31.838Z,41.63
2018-02-18T00:24:02.715Z,41.20
2018-02-18T00:26:33.549Z,42.30
2018-02-18T00:29:04.348Z,36.67
2018-02-18T00:31:35.251Z,38.70
2018-02-18T00:34:06.122Z,38.60
2018-02-18T00:36:37.104Z,40.77
2018-02-18T00:39:07.968Z,35.05
2018-02-18T00:41:38.840Z,41.37
2018-02-18T00:44:09.717Z,34.33
2018-02-18T00:46:40.651Z,39.50
2018-02-18T00:49:13.845Z,31.53
2018-02-18T00:51:44.752Z,40.38
2018-02-18T00:54:18.702Z,36.13
2018-02-18T00:56:49.586Z,34.33
2018-02-18T00:59:20.451Z,40.23
2018-02-18T01:01:52.187Z,39.97
2018-02-18T01:04:23.066Z,47.22
2018-02-18T01:06:53.939Z,38.83
2018-02-18T01:09:24.838Z,43.50
2018-02-18T01:11:55.672Z,46.37
2018-02-18T01:14:26.509Z,38.20
2018-02-18T01:16:57.453Z,46.07
2018-02-18T01:19:28.296Z,35.10
2018-02-18T01:21:59.227Z,43.93
2018-02-18T01:24:30.114Z,44.27
2018-02-18T01:27:01.006Z,38.60
2018-02-18T01:29:36.345Z,52.80
2018-02-18T01:32:08.017Z,45.20
2018-02-18T01:34:38.946Z,45.05
2018-02-18T01:37:09.856Z,41.20
2018-02-18T01:39:40.671Z,47.67
2018-02-18T01:42:11.471Z,40.40
2018-02-18T01:44:42.299Z,48.83
2018-02-18T01:47:13.220Z,38.17
2018-02-18T01:49:44.076Z,42.60
2018-02-18T01:52:14.929Z,38.40
2018-02-18T01:54:45.794Z,40.37
2018-02-18T01:57:16.650Z,38.17
2018-02-18T01:59:47.549Z,34.97
2018-02-18T02:02:18.410Z,39.77
2018-02-18T02:07:50.226Z,42.85
2018-02-18T02:10:21.061Z,46.00
2018-02-18T02:12:51.891Z,42.47
2018-02-18T02:15:22.670Z,36.70
2018-02-18T02:17:53.570Z,40.20
2018-02-18T02:20:24.460Z,37.43
2018-02-18T02:23:00.625Z,33.73
2018-02-18T02:25:31.510Z,43.83
2018-02-18T02:28:02.398Z,33.50
2018-02-18T02:30:33.385Z,37.70
2018-02-18T02:33:04.228Z,37.67
2018-02-18T02:35:35.071Z,35.97
2018-02-18T02:38:06.060Z,36.70
2018-02-18T02:40:36.994Z,30.70
2018-02-18T02:43:07.882Z,40.07
2018-02-18T02:45:38.710Z,35.30
2018-02-18T02:48:09.563Z,38.53
2018-02-18T02:50:40.444Z,36.77
2018-02-18T02:53:11.324Z,39.27
2018-02-18T02:55:42.186Z,36.90
2018-02-18T02:58:13.056Z,36.70
2018-02-18T03:00:43.938Z,35.37
2018-02-18T03:03:14.801Z,34.47
2018-02-18T03:05:45.641Z,40.70
2018-02-18T03:08:16.484Z,31.70
2018-02-18T03:10:47.384Z,31.87
2018-02-18T03:13:18.302Z,36.70
2018-02-18T03:15:49.186Z,34.57
2018-02-18T03:18:20.062Z,35.00
2018-02-18T03:20:50.893Z,36.43
2018-02-18T03:23:21.758Z,33.87
2018-02-18T03:25:52.608Z,32.33
2018-02-18T03:28:23.514Z,37.27
2018-02-18T03:30:54.359Z,39.60
2018-02-18T03:33:25.242Z,38.30
2018-02-18T03:35:56.160Z,41.90
2018-02-18T03:38:27.020Z,32.80
2018-02-18T03:40:57.865Z,41.83
2018-02-18T03:43:28.730Z,29.80
2018-02-18T03:45:59.564Z,31.63
2018-02-18T03:48:30.418Z,34.97
2018-02-18T03:51:01.239Z,38.40
2018-02-18T03:53:32.134Z,31.10
2018-02-18T03:56:02.951Z,37.20
2018-02-18T03:58:33.790Z,40.50
2018-02-18T04:01:04.654Z,36.33
2018-02-18T04:03:35.503Z,35.93
2018-02-18T04:06:06.360Z,35.60
2018-02-18T04:08:37.240Z,31.53
2018-02-18T04:11:08.112Z,38.50
2018-02-18T04:13:38.961Z,30.60
2018-02-18T04:16:17.840Z,37.43
2018-02-18T04:18:48.703Z,33.20
2018-02-18T04:21:19.502Z,28.30
2018-02-18T04:23:50.341Z,29.73
2018-02-18T04:26:21.155Z,29.20
2018-02-18T04:28:52.017Z,34.30
2018-02-18T04:31:27.038Z,28.30
2018-02-18T04:33:57.887Z,28.08
2018-02-18T04:36:28.722Z,34.03
2018-02-18T04:38:59.592Z,27.40
2018-02-18T04:41:30.419Z,33.00
2018-02-18T04:44:01.318Z,34.50
2018-02-18T04:46:32.181Z,32.67
2018-02-18T04:49:03.104Z,37.97
2018-02-18T04:51:33.929Z,34.70
2018-02-18T04:54:06.624Z,38.00
2018-02-18T04:56:37.546Z,35.90
2018-02-18T04:59:08.398Z,35.57
2018-02-18T05:17:03.174Z,35.25
2018-02-18T05:19:34.040Z,41.10
2018-02-18T05:22:04.887Z,34.50
2018-02-18T05:24:35.827Z,47.17
2018-02-18T05:27:06.732Z,39.77
2018-02-18T05:29:37.613Z,32.83
2018-02-18T05:32:08.550Z,34.87
2018-02-18T05:34:39.423Z,38.57
2018-02-18T05:37:10.325Z,30.57
2018-02-18T05:39:41.171Z,35.20
2018-02-18T05:42:12.141Z,38.00
2018-02-18T05:44:42.994Z,34.80
2018-02-18T05:47:13.873Z,36.80
2018-02-18T05:49:45.320Z,29.00
2018-02-18T05:52:16.195Z,28.35
2018-02-18T05:54:47.044Z,44.77
2018-02-18T05:57:17.891Z,41.10
2018-02-18T05:59:48.862Z,39.97
2018-02-18T06:02:19.747Z,40.22
2018-02-18T06:04:50.809Z,32.23
2018-02-18T06:07:21.835Z,32.72
2018-02-18T06:09:52.681Z,37.67
2018-02-18T06:12:23.657Z,38.20
2018-02-18T06:14:55.683Z,37.17
2018-02-18T06:17:26.577Z,38.67
2018-02-18T06:19:58.172Z,41.20
2018-02-18T06:22:29.122Z,38.00
2018-02-18T06:25:00.702Z,28.27
2018-02-18T06:27:33.203Z,32.55
2018-02-18T06:30:04.647Z,34.10
2018-02-18T06:32:36.454Z,33.88
2018-02-18T06:35:07.694Z,28.30
2018-02-18T06:37:41.434Z,29.95
2018-02-18T06:40:12.488Z,30.88
2018-02-18T06:42:43.397Z,30.58
2018-02-18T06:45:14.217Z,30.53
2018-02-18T06:47:45.114Z,34.27
2018-02-18T06:50:15.964Z,34.67
2018-02-18T06:52:46.830Z,33.50
2018-02-18T06:55:17.681Z,41.40
2018-02-18T06:57:48.512Z,37.50
2018-02-18T07:00:19.333Z,41.60
2018-02-18T07:02:50.219Z,34.27
2018-02-18T07:05:21.022Z,43.43
2018-02-18T07:07:51.888Z,41.70
2018-02-18T07:10:22.744Z,39.57
2018-02-18T07:12:53.609Z,36.53
2018-02-18T07:15:24.487Z,37.70
2018-02-18T07:17:55.388Z,40.07
2018-02-18T07:20:26.306Z,34.37
2018-02-18T07:22:57.365Z,35.60
2018-02-18T07:25:28.195Z,32.83
2018-02-18T07:27:59.029Z,30.90
2018-02-18T07:30:29.931Z,33.40
2018-02-18T07:33:00.746Z,29.87
2018-02-18T07:35:31.659Z,35.30
2018-02-18T07:38:02.503Z,36.67
2018-02-18T07:40:33.348Z,34.27
2018-02-18T07:43:04.204Z,30.70
2018-02-18T07:45:35.042Z,32.00
2018-02-18T07:48:18.437Z,35.50
2018-02-18T07:50:49.286Z,34.00
2018-02-18T07:53:20.153Z,31.50
2018-02-18T07:55:51.015Z,32.67
2018-02-18T07:58:21.883Z,36.70
2018-02-18T08:00:52.728Z,33.87
2018-02-18T08:03:23.596Z,31.20
2018-02-18T08:05:54.445Z,32.00
2018-02-18T08:08:25.300Z,32.87
2018-02-18T08:10:56.136Z,35.30
2018-02-18T08:13:27.047Z,28.63
2018-02-18T08:15:57.882Z,33.80
2018-02-18T08:18:28.824Z,36.20
2018-02-18T08:20:59.694Z,37.70
2018-02-18T08:23:30.553Z,29.77
2018-02-18T08:26:01.447Z,35.87
2018-02-18T08:28:32.367Z,33.63
2018-02-18T08:31:03.214Z,34.50
2018-02-18T08:33:34.086Z,30.90
2018-02-18T08:36:04.954Z,31.83
2018-02-18T08:38:35.831Z,35.17
2018-02-18T08:41:06.663Z,37.33
2018-02-18T08:43:37.522Z,35.67
2018-02-18T08:46:08.467Z,33.97
2018-02-18T08:48:39.306Z,35.67
2018-02-18T08:51:10.205Z,37.63
2018-02-18T08:53:42.508Z,38.87
2018-02-18T08:56:13.446Z,41.42
2018-02-18T08:58:44.314Z,35.60
2018-02-18T09:01:15.210Z,29.90
2018-02-18T09:03:46.149Z,34.30
2018-02-18T09:06:16.999Z,30.60
2018-02-18T09:08:47.907Z,35.33
2018-02-18T09:11:18.779Z,29.23
2018-02-18T09:13:49.647Z,31.17
2018-02-18T09:16:20.553Z,27.27
2018-02-18T09:18:51.418Z,35.33
2018-02-18T09:21:22.253Z,30.77
2018-02-18T09:23:53.131Z,33.20
2018-02-18T09:26:23.983Z,31.90
2018-02-18T09:28:54.882Z,29.10
2018-02-18T09:31:25.734Z,30.93
2018-02-18T09:33:56.590Z,28.80
2018-02-18T09:36:27.441Z,26.57
2018-02-18T09:38:58.343Z,30.67
2018-02-18T09:41:29.170Z,27.17
2018-02-18T09:44:00.064Z,32.53
2018-02-18T09:46:30.901Z,33.10
2018-02-18T09:49:01.809Z,30.50
2018-02-18T09:51:32.649Z,27.40
2018-02-18T09:54:03.505Z,30.77
2018-02-18T09:56:34.331Z,32.00
2018-02-18T09:59:05.166Z,28.67
2018-02-18T10:01:35.997Z,31.23
2018-02-18T10:04:06.826Z,32.10
2018-02-18T10:06:37.662Z,28.60
2018-02-18T10:09:08.506Z,29.73
2018-02-18T10:11:39.342Z,30.67
2018-02-18T10:14:10.220Z,31.03
2018-02-18T10:16:41.055Z,31.80
2018-02-18T10:19:11.937Z,30.73
2018-02-18T10:21:42.774Z,30.97
2018-02-18T10:24:13.628Z,29.73
2018-02-18T10:26:44.474Z,33.67
2018-02-18T10:29:15.322Z,27.33
2018-02-18T10:31:46.134Z,28.43
2018-02-18T10:34:16.968Z,26.50
2018-02-18T10:36:47.788Z,30.60
2018-02-18T10:39:18.600Z,28.83
2018-02-18T10:41:49.448Z,28.20
2018-02-18T10:44:20.321Z,28.97
2018-02-18T10:46:51.156Z,29.90
2018-02-18T10:49:22.038Z,26.80
2018-02-18T10:51:52.894Z,27.47
2018-02-18T10:54:23.758Z,27.13
2018-02-18T10:56:54.607Z,25.03
2018-02-18T10:59:25.448Z,28.10
2018-02-18T11:01:56.285Z,23.87
2018-02-18T11:04:27.219Z,27.67
2018-02-18T11:06:58.064Z,25.23
2018-02-18T11:09:28.947Z,27.70
2018-02-18T11:11:59.740Z,24.73
2018-02-18T11:14:30.650Z,26.90
2018-02-18T11:17:01.494Z,23.33
2018-02-18T11:19:32.331Z,22.13
2018-02-18T11:22:03.166Z,18.80
2018-02-18T11:24:34.010Z,24.63
2018-02-18T11:27:05.780Z,20.53
2018-02-18T11:29:36.673Z,16.87
2018-02-18T11:32:07.553Z,23.47
2018-02-18T11:34:38.475Z,22.03
2018-02-18T11:37:09.336Z,19.13
2018-02-18T11:39:40.213Z,21.20
2018-02-18T11:42:11.107Z,18.60
2018-02-18T11:44:42.026Z,26.53
2018-02-18T11:47:12.878Z,22.00
2018-02-18T11:49:43.754Z,22.40
2018-02-18T11:52:14.647Z,22.03
2018-02-18T11:54:45.456Z,20.90
2018-02-18T11:57:16.342Z,19.20
2018-02-18T11:59:48.248Z,15.60
2018-02-18T12:02:19.106Z,16.05
2018-02-18T12:04:49.964Z,15.63
2018-02-18T12:07:20.841Z,15.40
2018-02-18T12:09:51.848Z,17.90
2018-02-18T12:12:22.785Z,15.18
2018-02-18T12:14:53.654Z,16.93
2018-02-18T12:17:24.544Z,17.70
2018-02-18T12:19:55.450Z,18.53
2018-02-18T12:22:26.345Z,20.37
2018-02-18T12:24:57.180Z,16.57
2018-02-18T12:27:27.997Z,20.53
2018-02-18T12:29:58.836Z,16.17
2018-02-18T12:32:29.621Z,18.90
2018-02-18T12:35:00.518Z,19.10
2018-02-18T12:37:31.356Z,20.00
2018-02-18T12:40:02.210Z,17.97
2018-02-18T12:42:33.019Z,16.50
2018-02-18T12:45:03.878Z,13.97
2018-02-18T12:47:34.693Z,19.43
2018-02-18T12:50:05.628Z,15.13
2018-02-18T12:52:36.870Z,14.80
2018-02-18T12:55:08.495Z,17.27
2018-02-18T12:57:39.390Z,10.85
2018-02-18T13:00:10.271Z,13.63
2018-02-18T13:02:48.117Z,15.33
2018-02-18T13:05:18.972Z,14.10
2018-02-18T13:07:49.812Z,16.40
2018-02-18T13:10:20.624Z,15.43
2018-02-18T13:12:51.407Z,14.43
2018-02-18T13:15:22.327Z,16.00
2018-02-18T13:17:53.169Z,14.27
2018-02-18T13:20:24.057Z,13.63
2018-02-18T13:22:54.923Z,15.70
2018-02-18T13:25:25.774Z,14.80
2018-02-18T13:27:56.637Z,17.50
2018-02-18T13:30:27.482Z,14.17
2018-02-18T13:32:58.352Z,20.17
2018-02-18T13:35:29.239Z,17.70
2018-02-18T13:38:00.072Z,17.10
2018-02-18T13:40:30.904Z,14.47
2018-02-18T13:43:01.880Z,15.47
2018-02-18T13:45:32.691Z,16.50
2018-02-18T13:48:03.535Z,14.90
2018-02-18T13:50:34.440Z,16.50
2018-02-18T13:53:05.241Z,16.40
2018-02-18T13:55:36.124Z,15.37
2018-02-18T13:58:06.979Z,16.60
2018-02-18T14:00:37.852Z,18.40
2018-02-18T14:03:09.896Z,16.50
2018-02-18T14:05:40.719Z,15.38
2018-02-18T14:08:11.599Z,15.30
2018-02-18T14:10:42.437Z,15.60
2018-02-18T14:13:13.347Z,16.03
2018-02-18T14:15:45.242Z,14.80
2018-02-18T14:18:16.068Z,16.05
2018-02-18T14:20:47.032Z,15.67
2018-02-18T14:23:17.870Z,14.10
2018-02-18T14:25:49.570Z,14.80
2018-02-18T14:28:20.398Z,14.60
2018-02-18T14:30:51.289Z,18.87
2018-02-18T14:33:22.122Z,14.77
2018-02-18T14:35:53.013Z,13.67
2018-02-18T14:38:23.871Z,16.47
2018-02-18T14:40:54.795Z,18.03
2018-02-18T14:43:37.918Z,16.50
2018-02-18T14:46:21.203Z,15.02
2018-02-18T14:49:04.384Z,13.95
2018-02-18T14:51:47.660Z,17.87
2018-02-18T14:54:28.486Z,18.37
2018-02-18T15:00:06.303Z,18.52
2018-02-18T15:02:37.161Z,15.10
2018-02-18T15:05:07.996Z,18.00
2018-02-18T15:07:38.858Z,15.50
2018-02-18T15:10:10.721Z,20.13
2018-02-18T15:12:41.562Z,15.52
2018-02-18T15:15:12.387Z,19.10
2018-02-18T15:17:43.332Z,19.17
2018-02-18T15:20:14.173Z,15.00
2018-02-18T15:22:45.022Z,16.03
2018-02-18T15:25:15.842Z,16.93
2018-02-18T15:27:46.723Z,17.43
2018-02-18T15:30:17.569Z,16.83
2018-02-18T15:32:48.426Z,17.70
2018-02-18T15:35:19.257Z,17.73
2018-02-18T15:37:50.082Z,17.10
2018-02-18T15:40:21.069Z,16.70
2018-02-18T15:42:51.922Z,15.40
2018-02-18T15:45:22.760Z,15.70
2018-02-18T15:47:53.676Z,21.60
2018-02-18T15:50:24.557Z,17.53
2018-02-18T15:52:55.478Z,19.07
2018-02-18T15:55:26.336Z,18.00
2018-02-18T15:57:57.220Z,20.13
2018-02-18T16:00:28.110Z,22.07
2018-02-18T16:02:58.999Z,22.00
2018-02-18T16:05:29.925Z,23.03
2018-02-18T16:08:00.806Z,19.20
2018-02-18T16:10:31.660Z,23.87
2018-02-18T16:13:02.569Z,22.90
2018-02-18T16:15:33.435Z,23.20
2018-02-18T16:18:04.278Z,20.53
2018-02-18T16:20:35.202Z,21.70
2018-02-18T16:23:06.039Z,22.80
2018-02-18T16:25:36.857Z,21.90
2018-02-18T16:28:07.653Z,19.90
2018-02-18T16:30:38.526Z,23.70
2018-02-18T16:33:09.535Z,22.13
2018-02-18T16:35:40.409Z,23.40
2018-02-18T16:38:11.299Z,22.70
2018-02-18T16:40:42.230Z,24.10
2018-02-18T16:43:13.132Z,24.53
2018-02-18T16:45:43.920Z,22.03
2018-02-18T16:48:15.782Z,25.37
2018-02-18T16:50:46.643Z,23.02
2018-02-18T16:53:17.520Z,22.33
2018-02-18T16:55:48.392Z,24.90
2018-02-18T16:58:19.264Z,29.63
2018-02-18T17:00:50.104Z,25.70
2018-02-18T17:03:20.991Z,24.83
2018-02-18T17:05:51.862Z,22.40
2018-02-18T17:08:22.714Z,24.40
2018-02-18T17:10:53.726Z,30.83
2018-02-18T17:13:24.580Z,23.80
2018-02-18T17:15:55.484Z,22.77
2018-02-18T17:18:26.356Z,27.07
2018-02-18T17:20:59.217Z,25.50
2018-02-18T17:23:30.178Z,29.58
2018-02-18T17:26:01.092Z,25.57
2018-02-18T17:28:31.926Z,28.83
2018-02-18T17:31:02.828Z,28.73
2018-02-18T17:33:33.661Z,29.87
2018-02-18T17:36:04.573Z,34.07
2018-02-18T17:38:35.443Z,35.17
2018-02-18T17:41:06.318Z,42.07
2018-02-18T17:43:37.178Z,42.43
2018-02-18T17:46:08.050Z,44.83
2018-02-18T17:48:38.951Z,33.70
2018-02-18T17:51:09.859Z,32.90
2018-02-18T17:53:40.763Z,34.13
2018-02-18T17:56:11.677Z,36.73
2018-02-18T17:58:42.661Z,29.93
2018-02-18T18:01:13.537Z,31.37
2018-02-18T18:03:44.396Z,27.80
2018-02-18T18:06:15.278Z,28.47
2018-02-18T18:08:46.196Z,26.97
2018-02-18T18:11:17.084Z,26.93
2018-02-18T18:13:47.937Z,24.87
2018-02-18T18:16:18.779Z,28.03
2018-02-18T18:18:49.606Z,24.60
2018-02-18T18:21:20.459Z,24.70
2018-02-18T18:23:51.292Z,22.03
2018-02-18T18:26:22.192Z,22.70
2018-02-18T18:28:53.051Z,26.00
2018-02-18T18:31:23.967Z,21.30
2018-02-18T18:33:54.803Z,21.87
2018-02-18T18:36:25.678Z,16.23
2018-02-18T18:38:56.538Z,18.13
2018-02-18T18:44:37.701Z,18.17
2018-02-18T18:47:09.665Z,28.70
2018-02-18T18:52:18.162Z,15.70
2018-02-18T18:54:53.633Z,13.37
2018-02-18T18:57:24.535Z,18.55
2018-02-18T18:59:55.397Z,15.90
2018-02-18T19:02:26.301Z,17.33
2018-02-18T19:04:57.286Z,16.40
2018-02-18T19:07:39.185Z,15.35
2018-02-18T19:10:14.980Z,16.08
2018-02-18T19:12:46.939Z,17.08
2018-02-18T19:15:17.838Z,15.20
2018-02-18T19:17:50.741Z,19.23
2018-02-18T19:20:21.818Z,17.12
2018-02-18T19:22:52.913Z,14.10
2018-02-18T19:25:29.099Z,17.77
2018-02-18T19:28:00.350Z,18.75
2018-02-18T19:30:31.598Z,18.15
2018-02-18T19:33:02.970Z,16.90
2018-02-18T19:35:34.057Z,15.80
2018-02-18T19:38:05.265Z,20.12
2018-02-18T19:40:36.425Z,19.25
2018-02-18T19:43:07.421Z,20.08
2018-02-18T19:45:38.319Z,16.42
2018-02-18T19:48:09.181Z,15.63
2018-02-18T19:50:40.174Z,20.43
2018-02-18T19:53:13.063Z,18.05
2018-02-18T19:55:43.941Z,18.70
2018-02-18T19:58:14.794Z,23.00
2018-02-18T20:00:45.675Z,16.07
2018-02-18T20:03:16.494Z,19.63
2018-02-18T20:05:47.457Z,14.93
2018-02-18T20:08:18.266Z,19.50
2018-02-18T20:10:49.098Z,16.40
2018-02-18T20:13:19.911Z,15.50
2018-02-18T20:15:50.839Z,18.43
2018-02-18T20:18:21.882Z,20.27
2018-02-18T20:20:52.914Z,18.85
2018-02-18T20:23:23.830Z,18.50
2018-02-18T20:25:54.873Z,18.03
2018-02-18T20:28:26.292Z,18.17
2018-02-18T20:30:57.228Z,17.58
2018-02-18T20:33:28.115Z,20.43
2018-02-18T20:36:07.455Z,15.20
2018-02-18T20:38:38.382Z,19.48
2018-02-18T20:41:09.236Z,18.73
2018-02-18T20:43:40.185Z,13.57
2018-02-18T20:46:11.201Z,21.13
2018-02-18T20:48:42.184Z,21.75
2018-02-18T20:51:13.170Z,21.70
2018-02-18T20:53:44.223Z,18.70
2018-02-18T20:56:15.341Z,23.42
2018-02-18T20:58:46.418Z,22.62
2018-02-18T21:01:17.558Z,17.30
2018-02-18T21:03:48.711Z,19.23
2018-02-18T21:06:19.993Z,16.98
2018-02-18T21:08:51.058Z,20.20
2018-02-18T21:11:22.038Z,20.12
2018-02-18T21:13:53.163Z,21.20
2018-02-18T21:16:24.275Z,20.33
2018-02-18T21:18:55.485Z,19.45
2018-02-18T21:21:26.529Z,15.68
2018-02-18T21:23:57.644Z,23.02
2018-02-18T21:26:28.864Z,21.05
2018-02-18T21:29:00.050Z,18.35
2018-02-18T21:31:31.165Z,18.60
2018-02-18T21:34:05.245Z,20.60
2018-02-18T21:36:36.698Z,19.50
2018-02-18T21:39:09.137Z,16.73
2018-02-18T21:41:40.517Z,18.33
2018-02-18T21:44:11.653Z,25.65
2018-02-18T21:46:43.276Z,20.65
2018-02-18T21:49:14.463Z,18.92
2018-02-18T21:51:45.816Z,16.17
2018-02-18T21:54:16.969Z,20.83
2018-02-18T21:56:48.087Z,21.33
2018-02-18T21:59:20.187Z,16.48
2018-02-18T22:01:51.420Z,18.17
2018-02-18T22:04:22.742Z,25.12
2018-02-18T22:06:53.835Z,25.40
2018-02-18T22:09:24.828Z,20.33
2018-02-18T22:12:00.010Z,20.92
2018-02-18T22:14:31.150Z,16.35
2018-02-18T22:17:02.209Z,20.35
2018-02-18T22:19:33.387Z,19.55
2018-02-18T22:22:04.355Z,21.40
2018-02-18T22:24:35.373Z,16.03
2018-02-18T22:27:07.246Z,16.67
2018-02-18T22:29:38.287Z,13.07
2018-02-18T22:32:09.216Z,13.57
2018-02-18T22:34:40.272Z,17.60
2018-02-18T22:37:11.266Z,13.95
2018-02-18T22:39:42.263Z,15.15
2018-02-18T22:42:13.301Z,13.57
2018-02-18T22:44:44.263Z,15.23
2018-02-18T22:47:15.389Z,12.57
2018-02-18T22:49:46.902Z,11.55
2018-02-18T22:52:17.855Z,10.73
2018-02-18T22:54:48.862Z,12.23
2018-02-18T22:57:19.840Z,13.10
2018-02-18T22:59:50.853Z,11.35
2018-02-18T23:02:21.842Z,15.95
2018-02-18T23:05:00.995Z,14.23
2018-02-18T23:07:32.070Z,13.88
2018-02-18T23:10:03.084Z,15.23
2018-02-18T23:12:34.095Z,16.27
2018-02-18T23:15:05.289Z,16.45
2018-02-18T23:17:36.405Z,12.77
2018-02-18T23:20:07.597Z,13.65
2018-02-18T23:22:38.776Z,12.43
2018-02-18T23:25:10.296Z,14.63
2018-02-18T23:27:42.047Z,11.63
2018-02-18T23:30:13.368Z,18.65
2018-02-18T23:32:45.014Z,13.30
2018-02-18T23:35:16.295Z,20.45
2018-02-18T23:37:47.760Z,13.90
2018-02-18T23:40:20.256Z,12.37
2018-02-18T23:42:51.656Z,12.95
2018-02-18T23:45:23.050Z,14.52
2018-02-18T23:47:54.731Z,16.52
2018-02-18T23:50:27.914Z,13.18
2018-02-18T23:52:59.056Z,11.15
2018-02-18T23:55:30.093Z,10.73
2018-02-18T23:58:01.301Z,9.63
